sensor_id;sensor_type;location;lat;lon;timestamp;pressure;altitude;pressure_sealevel;temperature;humidity
16331;BME280;8275;48.206;16.340;2023-09-30T00:01:02;99597.41;;;22.35;40.02
16331;BME280;8275;48.206;16.340;2023-09-30T00:03:32;99591.81;;;22.35;39.91
16331;BME280;8275;48.206;16.340;2023-09-30T00:06:01;99599.88;;;22.37;39.60
16331;BME280;8275;48.206;16.340;2023-09-30T00:08:31;99596.25;;;22.36;39.99
16331;BME280;8275;48.206;16.340;2023-09-30T00:10:59;99598.72;;;22.38;39.95
16331;BME280;8275;48.206;16.340;2023-09-30T00:13:28;99602.34;;;22.38;39.68
16331;BME280;8275;48.206;16.340;2023-09-30T00:15:56;99592.50;;;22.41;39.59
16331;BME280;8275;48.206;16.340;2023-09-30T00:18:25;99597.75;;;22.43;39.65
16331;BME280;8275;48.206;16.340;2023-09-30T00:20:56;99587.09;;;22.45;39.79
16331;BME280;8275;48.206;16.340;2023-09-30T00:23:24;99592.34;;;22.46;39.57
16331;BME280;8275;48.206;16.340;2023-09-30T00:25:53;99592.00;;;22.48;39.89
16331;BME280;8275;48.206;16.340;2023-09-30T00:28:22;99595.28;;;22.50;39.91
16331;BME280;8275;48.206;16.340;2023-09-30T00:30:51;99592.19;;;22.51;39.99
16331;BME280;8275;48.206;16.340;2023-09-30T00:33:20;99585.44;;;22.52;39.66
16331;BME280;8275;48.206;16.340;2023-09-30T00:35:49;99580.34;;;22.54;39.69
16331;BME280;8275;48.206;16.340;2023-09-30T00:38:19;99585.28;;;22.57;40.12
16331;BME280;8275;48.206;16.340;2023-09-30T00:40:51;99572.16;;;22.58;40.04
16331;BME280;8275;48.206;16.340;2023-09-30T00:43:20;99579.09;;;22.60;40.26
16331;BME280;8275;48.206;16.340;2023-09-30T00:45:51;99573.50;;;22.60;40.37
16331;BME280;8275;48.206;16.340;2023-09-30T00:48:20;99572.03;;;22.63;40.08
16331;BME280;8275;48.206;16.340;2023-09-30T00:50:49;99574.00;;;22.62;40.45
16331;BME280;8275;48.206;16.340;2023-09-30T00:53:22;99571.53;;;22.61;40.77
16331;BME280;8275;48.206;16.340;2023-09-30T00:55:53;99574.59;;;22.59;40.90
16331;BME280;8275;48.206;16.340;2023-09-30T00:58:22;99572.97;;;22.58;40.95
16331;BME280;8275;48.206;16.340;2023-09-30T01:00:53;99580.53;;;22.58;40.93
16331;BME280;8275;48.206;16.340;2023-09-30T01:03:23;99584.78;;;22.55;40.86
16331;BME280;8275;48.206;16.340;2023-09-30T01:05:51;99580.34;;;22.54;41.02
16331;BME280;8275;48.206;16.340;2023-09-30T01:08:22;99588.22;;;22.52;41.26
16331;BME280;8275;48.206;16.340;2023-09-30T01:10:51;99578.22;;;22.51;40.96
16331;BME280;8275;48.206;16.340;2023-09-30T01:13:19;99582.66;;;22.52;40.80
16331;BME280;8275;48.206;16.340;2023-09-30T01:15:48;99583.81;;;22.51;40.90
16331;BME280;8275;48.206;16.340;2023-09-30T01:18:17;99578.72;;;22.53;41.09
16331;BME280;8275;48.206;16.340;2023-09-30T01:20:45;99584.78;;;22.55;41.38
16331;BME280;8275;48.206;16.340;2023-09-30T01:23:16;99583.66;;;22.56;41.25
16331;BME280;8275;48.206;16.340;2023-09-30T01:25:45;99589.72;;;22.58;41.22
16331;BME280;8275;48.206;16.340;2023-09-30T01:28:13;99587.47;;;22.60;41.43
16331;BME280;8275;48.206;16.340;2023-09-30T01:30:43;99591.56;;;22.63;41.46
16331;BME280;8275;48.206;16.340;2023-09-30T01:33:12;99588.94;;;22.66;41.27
16331;BME280;8275;48.206;16.340;2023-09-30T01:35:41;99595.00;;;22.68;41.52
16331;BME280;8275;48.206;16.340;2023-09-30T01:38:09;99592.41;;;22.72;41.40
16331;BME280;8275;48.206;16.340;2023-09-30T01:40:39;99594.84;;;22.73;41.47
16331;BME280;8275;48.206;16.340;2023-09-30T01:43:09;99597.81;;;22.77;41.47
16331;BME280;8275;48.206;16.340;2023-09-30T01:45:40;99597.47;;;22.78;41.51
16331;BME280;8275;48.206;16.340;2023-09-30T01:48:10;99600.41;;;22.82;41.08
16331;BME280;8275;48.206;16.340;2023-09-30T01:50:39;99595.31;;;22.84;41.18
16331;BME280;8275;48.206;16.340;2023-09-30T01:53:08;99602.22;;;22.86;41.36
16331;BME280;8275;48.206;16.340;2023-09-30T01:55:38;99601.91;;;22.88;41.34
16331;BME280;8275;48.206;16.340;2023-09-30T01:58:07;99600.44;;;22.90;41.47
16331;BME280;8275;48.206;16.340;2023-09-30T02:00:38;99599.28;;;22.91;41.06
16331;BME280;8275;48.206;16.340;2023-09-30T02:03:07;99598.13;;;22.92;41.48
16331;BME280;8275;48.206;16.340;2023-09-30T02:05:37;99603.38;;;22.94;41.11
16331;BME280;8275;48.206;16.340;2023-09-30T02:08:06;99607.00;;;22.94;41.19
16331;BME280;8275;48.206;16.340;2023-09-30T02:10:34;99601.91;;;22.96;41.13
16331;BME280;8275;48.206;16.340;2023-09-30T02:13:05;99603.22;;;22.99;41.30
16331;BME280;8275;48.206;16.340;2023-09-30T02:15:33;99606.16;;;23.02;41.32
16331;BME280;8275;48.206;16.340;2023-09-30T02:18:03;99608.78;;;23.08;41.21
16331;BME280;8275;48.206;16.340;2023-09-30T02:20:32;99614.22;;;23.13;41.35
16331;BME280;8275;48.206;16.340;2023-09-30T02:23:00;99619.31;;;23.19;41.56
16331;BME280;8275;48.206;16.340;2023-09-30T02:25:30;99622.75;;;23.25;41.61
16331;BME280;8275;48.206;16.340;2023-09-30T02:27:59;99615.00;;;23.30;41.36
16331;BME280;8275;48.206;16.340;2023-09-30T02:30:29;99606.16;;;23.37;41.55
16331;BME280;8275;48.206;16.340;2023-09-30T02:32:58;99615.34;;;23.46;41.83
16331;BME280;8275;48.206;16.340;2023-09-30T02:35:27;99616.16;;;23.55;41.99
16331;BME280;8275;48.206;16.340;2023-09-30T02:37:56;99620.72;;;23.68;42.07
16331;BME280;8275;48.206;16.340;2023-09-30T02:40:26;99611.63;;;23.80;42.05
16331;BME280;8275;48.206;16.340;2023-09-30T02:42:54;99610.25;;;23.94;41.98
16331;BME280;8275;48.206;16.340;2023-09-30T02:45:22;99612.84;;;24.08;41.91
16331;BME280;8275;48.206;16.340;2023-09-30T02:47:53;99613.75;;;24.20;41.74
16331;BME280;8275;48.206;16.340;2023-09-30T02:50:21;99617.78;;;24.31;41.67
16331;BME280;8275;48.206;16.340;2023-09-30T02:52:50;99612.63;;;24.42;41.61
16331;BME280;8275;48.206;16.340;2023-09-30T02:55:19;99605.47;;;24.53;41.40
16331;BME280;8275;48.206;16.340;2023-09-30T02:57:47;99615.47;;;24.63;41.32
16331;BME280;8275;48.206;16.340;2023-09-30T03:00:17;99612.13;;;24.69;41.13
16331;BME280;8275;48.206;16.340;2023-09-30T03:02:53;99612.41;;;24.76;41.29
16331;BME280;8275;48.206;16.340;2023-09-30T03:05:23;99598.69;;;24.83;41.30
16331;BME280;8275;48.206;16.340;2023-09-30T03:07:51;99600.47;;;24.88;41.08
16331;BME280;8275;48.206;16.340;2023-09-30T03:10:20;99608.66;;;24.93;40.99
16331;BME280;8275;48.206;16.340;2023-09-30T03:12:51;99610.75;;;24.96;41.15
16331;BME280;8275;48.206;16.340;2023-09-30T03:15:20;99609.72;;;25.00;41.09
16331;BME280;8275;48.206;16.340;2023-09-30T03:17:49;99610.69;;;25.04;41.12
16331;BME280;8275;48.206;16.340;2023-09-30T03:20:21;99612.31;;;25.05;41.08
16331;BME280;8275;48.206;16.340;2023-09-30T03:22:52;99614.44;;;25.08;41.25
16331;BME280;8275;48.206;16.340;2023-09-30T03:25:21;99612.13;;;25.10;41.12
16331;BME280;8275;48.206;16.340;2023-09-30T03:27:50;99602.56;;;25.12;41.20
16331;BME280;8275;48.206;16.340;2023-09-30T03:30:18;99615.06;;;25.14;41.41
16331;BME280;8275;48.206;16.340;2023-09-30T03:32:48;99612.38;;;25.18;41.30
16331;BME280;8275;48.206;16.340;2023-09-30T03:35:17;99616.84;;;25.19;41.34
16331;BME280;8275;48.206;16.340;2023-09-30T03:37:49;99606.41;;;25.19;41.44
16331;BME280;8275;48.206;16.340;2023-09-30T03:40:17;99616.97;;;25.22;41.36
16331;BME280;8275;48.206;16.340;2023-09-30T03:42:48;99617.44;;;25.24;41.72
16331;BME280;8275;48.206;16.340;2023-09-30T03:45:18;99615.44;;;25.25;41.74
16331;BME280;8275;48.206;16.340;2023-09-30T03:47:47;99615.09;;;25.26;42.25
16331;BME280;8275;48.206;16.340;2023-09-30T03:50:16;99618.72;;;25.27;42.25
16331;BME280;8275;48.206;16.340;2023-09-30T03:52:46;99632.75;;;25.27;42.70
16331;BME280;8275;48.206;16.340;2023-09-30T03:55:16;99631.09;;;25.26;43.44
16331;BME280;8275;48.206;16.340;2023-09-30T03:57:48;99647.44;;;25.24;44.42
16331;BME280;8275;48.206;16.340;2023-09-30T04:00:19;99650.50;;;25.19;44.94
16331;BME280;8275;48.206;16.340;2023-09-30T04:02:48;99637.81;;;25.13;45.11
16331;BME280;8275;48.206;16.340;2023-09-30T04:05:18;99658.34;;;25.04;45.51
16331;BME280;8275;48.206;16.340;2023-09-30T04:07:52;99655.59;;;24.96;45.84
16331;BME280;8275;48.206;16.340;2023-09-30T04:10:21;99664.25;;;24.91;46.10
16331;BME280;8275;48.206;16.340;2023-09-30T04:12:51;99667.72;;;24.88;46.11
16331;BME280;8275;48.206;16.340;2023-09-30T04:15:19;99672.50;;;24.87;46.06
16331;BME280;8275;48.206;16.340;2023-09-30T04:17:48;99680.06;;;24.87;46.22
16331;BME280;8275;48.206;16.340;2023-09-30T04:20:19;99674.47;;;24.87;45.92
16331;BME280;8275;48.206;16.340;2023-09-30T04:22:52;99696.09;;;24.86;45.94
16331;BME280;8275;48.206;16.340;2023-09-30T04:25:24;99684.88;;;24.86;46.27
16331;BME280;8275;48.206;16.340;2023-09-30T04:27:53;99690.13;;;24.88;46.22
16331;BME280;8275;48.206;16.340;2023-09-30T04:30:22;99686.03;;;24.85;46.29
16331;BME280;8275;48.206;16.340;2023-09-30T04:32:50;99694.09;;;24.87;46.21
16331;BME280;8275;48.206;16.340;2023-09-30T04:35:20;99697.25;;;24.85;46.00
16331;BME280;8275;48.206;16.340;2023-09-30T04:37:49;99700.53;;;24.87;46.35
16331;BME280;8275;48.206;16.340;2023-09-30T04:40:20;99709.28;;;24.86;46.39
16331;BME280;8275;48.206;16.340;2023-09-30T04:42:49;99718.84;;;24.85;46.65
16331;BME280;8275;48.206;16.340;2023-09-30T04:45:17;99713.94;;;24.82;46.56
16331;BME280;8275;48.206;16.340;2023-09-30T04:47:48;99712.94;;;24.78;46.54
16331;BME280;8275;48.206;16.340;2023-09-30T04:50:17;99719.22;;;24.75;46.75
16331;BME280;8275;48.206;16.340;2023-09-30T04:52:50;99731.94;;;24.72;46.63
16331;BME280;8275;48.206;16.340;2023-09-30T04:55:20;99726.16;;;24.69;46.65
16331;BME280;8275;48.206;16.340;2023-09-30T04:57:50;99735.75;;;24.68;46.82
16331;BME280;8275;48.206;16.340;2023-09-30T05:00:20;99739.22;;;24.65;46.71
16331;BME280;8275;48.206;16.340;2023-09-30T05:02:55;99745.66;;;24.65;46.81
16331;BME280;8275;48.206;16.340;2023-09-30T05:05:26;99753.22;;;24.65;46.81
16331;BME280;8275;48.206;16.340;2023-09-30T05:07:55;99764.44;;;24.65;46.84
16331;BME280;8275;48.206;16.340;2023-09-30T05:10:26;99758.00;;;24.64;46.74
16331;BME280;8275;48.206;16.340;2023-09-30T05:12:56;99756.03;;;24.65;46.66
16331;BME280;8275;48.206;16.340;2023-09-30T05:15:24;99760.47;;;24.66;46.56
16331;BME280;8275;48.206;16.340;2023-09-30T05:17:53;99781.38;;;24.68;46.34
16331;BME280;8275;48.206;16.340;2023-09-30T05:20:22;99776.59;;;24.69;46.53
16331;BME280;8275;48.206;16.340;2023-09-30T05:22:51;99788.28;;;24.71;46.45
16331;BME280;8275;48.206;16.340;2023-09-30T05:25:20;99787.47;;;24.70;46.30
16331;BME280;8275;48.206;16.340;2023-09-30T05:27:54;99784.00;;;24.73;46.37
16331;BME280;8275;48.206;16.340;2023-09-30T05:30:24;99782.84;;;24.74;46.31
16331;BME280;8275;48.206;16.340;2023-09-30T05:32:52;99785.81;;;24.78;46.34
16331;BME280;8275;48.206;16.340;2023-09-30T05:35:21;99777.09;;;24.79;46.24
16331;BME280;8275;48.206;16.340;2023-09-30T05:37:51;99795.22;;;24.82;46.17
16331;BME280;8275;48.206;16.340;2023-09-30T05:40:20;99791.22;;;24.83;45.85
16331;BME280;8275;48.206;16.340;2023-09-30T05:42:54;99791.22;;;24.83;46.39
16331;BME280;8275;48.206;16.340;2023-09-30T05:45:25;99799.63;;;24.83;46.53
16331;BME280;8275;48.206;16.340;2023-09-30T05:47:55;99803.94;;;24.80;46.47
16331;BME280;8275;48.206;16.340;2023-09-30T05:50:26;99810.38;;;24.81;46.31
16331;BME280;8275;48.206;16.340;2023-09-30T05:52:55;99816.78;;;24.81;46.36
16331;BME280;8275;48.206;16.340;2023-09-30T05:55:24;99819.59;;;24.81;46.38
16331;BME280;8275;48.206;16.340;2023-09-30T05:57:55;99816.09;;;24.84;46.27
16331;BME280;8275;48.206;16.340;2023-09-30T06:00:24;99807.69;;;24.84;46.06
16331;BME280;8275;48.206;16.340;2023-09-30T06:02:59;99814.13;;;24.85;46.17
16331;BME280;8275;48.206;16.340;2023-09-30T06:05:28;99823.00;;;24.87;45.87
16331;BME280;8275;48.206;16.340;2023-09-30T06:08:03;99825.16;;;24.90;45.75
16331;BME280;8275;48.206;16.340;2023-09-30T06:10:32;99826.59;;;24.96;45.73
16331;BME280;8275;48.206;16.340;2023-09-30T06:13:02;99827.59;;;25.00;45.57
16331;BME280;8275;48.206;16.340;2023-09-30T06:15:31;99826.69;;;25.08;45.64
16331;BME280;8275;48.206;16.340;2023-09-30T06:18:00;99824.66;;;25.17;45.23
16331;BME280;8275;48.206;16.340;2023-09-30T06:20:28;99838.50;;;25.22;45.15
16331;BME280;8275;48.206;16.340;2023-09-30T06:22:58;99843.44;;;25.25;44.75
16331;BME280;8275;48.206;16.340;2023-09-30T06:25:28;99834.31;;;25.28;44.73
16331;BME280;8275;48.206;16.340;2023-09-30T06:27:57;99848.03;;;25.30;44.42
16331;BME280;8275;48.206;16.340;2023-09-30T06:30:27;99851.97;;;25.29;44.32
16331;BME280;8275;48.206;16.340;2023-09-30T06:32:59;99848.84;;;25.30;44.40
16331;BME280;8275;48.206;16.340;2023-09-30T06:35:29;99843.38;;;25.34;44.22
16331;BME280;8275;48.206;16.340;2023-09-30T06:38:01;99846.31;;;25.37;44.27
16331;BME280;8275;48.206;16.340;2023-09-30T06:40:30;99852.41;;;25.39;44.27
16331;BME280;8275;48.206;16.340;2023-09-30T06:42:59;99846.81;;;25.39;43.95
16331;BME280;8275;48.206;16.340;2023-09-30T06:45:29;99850.41;;;25.40;44.08
16331;BME280;8275;48.206;16.340;2023-09-30T06:48:00;99858.50;;;25.41;43.86
16331;BME280;8275;48.206;16.340;2023-09-30T06:50:29;99861.31;;;25.41;43.82
16331;BME280;8275;48.206;16.340;2023-09-30T06:52:58;99845.97;;;25.39;43.79
16331;BME280;8275;48.206;16.340;2023-09-30T06:55:27;99849.94;;;25.38;43.84
16331;BME280;8275;48.206;16.340;2023-09-30T06:57:58;99864.78;;;25.38;43.81
16331;BME280;8275;48.206;16.340;2023-09-30T07:00:29;99853.44;;;25.35;43.91
16331;BME280;8275;48.206;16.340;2023-09-30T07:02:59;99862.66;;;25.35;43.68
16331;BME280;8275;48.206;16.340;2023-09-30T07:05:28;99862.34;;;25.37;43.70
16331;BME280;8275;48.206;16.340;2023-09-30T07:07:57;99855.41;;;25.34;43.46
16331;BME280;8275;48.206;16.340;2023-09-30T07:10:26;99864.66;;;25.35;43.51
16331;BME280;8275;48.206;16.340;2023-09-30T07:12:56;99857.03;;;25.35;44.09
16331;BME280;8275;48.206;16.340;2023-09-30T07:15:25;99850.28;;;25.36;43.68
16331;BME280;8275;48.206;16.340;2023-09-30T07:17:55;99850.09;;;25.41;43.54
16331;BME280;8275;48.206;16.340;2023-09-30T07:20:24;99851.72;;;25.51;43.35
16331;BME280;8275;48.206;16.340;2023-09-30T07:22:53;99842.88;;;25.61;43.29
16331;BME280;8275;48.206;16.340;2023-09-30T07:25:42;99848.34;;;25.78;43.39
16331;BME280;8275;48.206;16.340;2023-09-30T07:28:10;99850.06;;;25.91;42.55
16331;BME280;8275;48.206;16.340;2023-09-30T07:30:40;99846.69;;;25.98;42.20
16331;BME280;8275;48.206;16.340;2023-09-30T07:33:10;99858.84;;;26.02;42.43
16331;BME280;8275;48.206;16.340;2023-09-30T07:35:39;99860.63;;;26.06;42.37
16331;BME280;8275;48.206;16.340;2023-09-30T07:38:07;99863.13;;;26.08;41.99
16331;BME280;8275;48.206;16.340;2023-09-30T07:40:36;99858.00;;;26.10;41.78
16331;BME280;8275;48.206;16.340;2023-09-30T07:43:05;99858.94;;;26.14;41.68
16331;BME280;8275;48.206;16.340;2023-09-30T07:45:33;99860.72;;;26.18;42.04
16331;BME280;8275;48.206;16.340;2023-09-30T07:48:02;99855.25;;;26.22;41.33
16331;BME280;8275;48.206;16.340;2023-09-30T07:50:33;99853.84;;;26.28;41.26
16331;BME280;8275;48.206;16.340;2023-09-30T07:53:02;99867.94;;;26.40;41.34
16331;BME280;8275;48.206;16.340;2023-09-30T07:55:31;99863.16;;;26.53;41.43
16331;BME280;8275;48.206;16.340;2023-09-30T07:57:59;99866.00;;;26.65;41.09
16331;BME280;8275;48.206;16.340;2023-09-30T08:00:28;99867.59;;;26.74;41.08
16331;BME280;8275;48.206;16.340;2023-09-30T08:02:57;99865.50;;;26.83;40.60
16331;BME280;8275;48.206;16.340;2023-09-30T08:05:28;99869.47;;;26.94;39.94
16331;BME280;8275;48.206;16.340;2023-09-30T08:07:57;99864.09;;;27.01;40.35
16331;BME280;8275;48.206;16.340;2023-09-30T08:10:26;99852.72;;;27.10;39.67
16331;BME280;8275;48.206;16.340;2023-09-30T08:12:56;99860.00;;;27.11;39.47
16331;BME280;8275;48.206;16.340;2023-09-30T08:15:28;99871.16;;;27.07;39.89
16331;BME280;8275;48.206;16.340;2023-09-30T08:17:57;99863.41;;;27.04;39.78
16331;BME280;8275;48.206;16.340;2023-09-30T08:20:26;99864.78;;;26.98;39.69
16331;BME280;8275;48.206;16.340;2023-09-30T08:22:55;99877.59;;;26.96;39.56
16331;BME280;8275;48.206;16.340;2023-09-30T08:25:24;99890.00;;;26.95;39.20
16331;BME280;8275;48.206;16.340;2023-09-30T08:27:53;99884.47;;;26.98;39.72
16331;BME280;8275;48.206;16.340;2023-09-30T08:30:22;99882.47;;;26.99;39.39
16331;BME280;8275;48.206;16.340;2023-09-30T08:32:50;99886.34;;;26.94;38.88
16331;BME280;8275;48.206;16.340;2023-09-30T08:35:19;99891.97;;;26.94;39.08
16331;BME280;8275;48.206;16.340;2023-09-30T08:37:48;99893.72;;;26.99;39.19
16331;BME280;8275;48.206;16.340;2023-09-30T08:40:20;99887.78;;;27.00;38.88
16331;BME280;8275;48.206;16.340;2023-09-30T08:42:52;99897.97;;;27.05;38.99
16331;BME280;8275;48.206;16.340;2023-09-30T08:45:21;99886.47;;;27.22;39.16
16331;BME280;8275;48.206;16.340;2023-09-30T08:47:50;99887.44;;;27.38;38.84
16331;BME280;8275;48.206;16.340;2023-09-30T08:50:20;99887.66;;;27.57;38.38
16331;BME280;8275;48.206;16.340;2023-09-30T08:52:49;99881.66;;;27.71;38.21
16331;BME280;8275;48.206;16.340;2023-09-30T08:55:18;99874.94;;;27.88;38.40
16331;BME280;8275;48.206;16.340;2023-09-30T08:57:48;99880.03;;;27.98;37.91
16331;BME280;8275;48.206;16.340;2023-09-30T09:00:20;99875.09;;;28.07;37.79
16331;BME280;8275;48.206;16.340;2023-09-30T09:02:50;99882.22;;;28.16;37.19
16331;BME280;8275;48.206;16.340;2023-09-30T09:05:19;99872.25;;;28.19;37.25
16331;BME280;8275;48.206;16.340;2023-09-30T09:07:47;99866.53;;;28.15;36.69
16331;BME280;8275;48.206;16.340;2023-09-30T09:10:17;99878.88;;;28.11;37.01
16331;BME280;8275;48.206;16.340;2023-09-30T09:12:56;99866.88;;;28.14;37.03
16331;BME280;8275;48.206;16.340;2023-09-30T09:15:27;99871.84;;;28.32;37.16
16331;BME280;8275;48.206;16.340;2023-09-30T09:17:57;99877.25;;;28.53;37.20
16331;BME280;8275;48.206;16.340;2023-09-30T09:20:26;99870.94;;;28.72;36.57
16331;BME280;8275;48.206;16.340;2023-09-30T09:22:56;99879.31;;;28.84;36.46
16331;BME280;8275;48.206;16.340;2023-09-30T09:25:27;99875.03;;;28.90;35.86
16331;BME280;8275;48.206;16.340;2023-09-30T09:27:56;99877.97;;;28.93;35.39
16331;BME280;8275;48.206;16.340;2023-09-30T09:30:27;99881.50;;;28.90;35.74
16331;BME280;8275;48.206;16.340;2023-09-30T09:33:00;99892.34;;;28.88;35.80
16331;BME280;8275;48.206;16.340;2023-09-30T09:35:29;99895.16;;;28.88;35.41
16331;BME280;8275;48.206;16.340;2023-09-30T09:38:01;99887.22;;;28.78;35.19
16331;BME280;8275;48.206;16.340;2023-09-30T09:40:33;99890.03;;;28.63;35.83
16331;BME280;8275;48.206;16.340;2023-09-30T09:43:03;99894.59;;;28.55;35.59
16331;BME280;8275;48.206;16.340;2023-09-30T09:45:36;99895.22;;;28.48;35.53
16331;BME280;8275;48.206;16.340;2023-09-30T09:48:06;99890.78;;;28.47;36.15
16331;BME280;8275;48.206;16.340;2023-09-30T09:50:35;99895.97;;;28.45;35.62
16331;BME280;8275;48.206;16.340;2023-09-30T09:53:06;99902.06;;;28.47;36.24
16331;BME280;8275;48.206;16.340;2023-09-30T09:55:36;99889.34;;;28.53;36.25
16331;BME280;8275;48.206;16.340;2023-09-30T09:58:08;99892.03;;;28.62;36.30
16331;BME280;8275;48.206;16.340;2023-09-30T10:00:41;99904.56;;;28.65;36.11
16331;BME280;8275;48.206;16.340;2023-09-30T10:03:10;99902.22;;;28.67;35.76
16331;BME280;8275;48.206;16.340;2023-09-30T10:05:39;99904.94;;;28.63;36.21
16331;BME280;8275;48.206;16.340;2023-09-30T10:08:14;99897.19;;;28.60;35.98
16331;BME280;8275;48.206;16.340;2023-09-30T10:10:44;99891.94;;;28.59;35.79
16331;BME280;8275;48.206;16.340;2023-09-30T10:13:50;99891.59;;;28.48;36.32
16331;BME280;8275;48.206;16.340;2023-09-30T10:16:51;99894.25;;;28.41;36.40
16331;BME280;8275;48.206;16.340;2023-09-30T10:19:21;99894.41;;;28.48;36.40
16331;BME280;8275;48.206;16.340;2023-09-30T10:22:22;99892.06;;;28.50;36.54
16331;BME280;8275;48.206;16.340;2023-09-30T10:24:53;99897.16;;;28.44;35.97
16331;BME280;8275;48.206;16.340;2023-09-30T10:27:33;99899.31;;;28.35;36.40
16331;BME280;8275;48.206;16.340;2023-09-30T10:30:11;99887.19;;;28.35;36.63
16331;BME280;8275;48.206;16.340;2023-09-30T10:33:10;99894.50;;;28.36;36.44
16331;BME280;8275;48.206;16.340;2023-09-30T10:35:46;99893.66;;;28.35;36.46
16331;BME280;8275;48.206;16.340;2023-09-30T10:38:39;99892.75;;;28.31;36.90
16331;BME280;8275;48.206;16.340;2023-09-30T10:41:09;99893.22;;;28.33;36.79
16331;BME280;8275;48.206;16.340;2023-09-30T10:43:40;99898.72;;;28.30;36.70
16331;BME280;8275;48.206;16.340;2023-09-30T10:46:30;99908.16;;;28.22;37.00
16331;BME280;8275;48.206;16.340;2023-09-30T10:49:30;99905.50;;;28.13;37.07
16331;BME280;8275;48.206;16.340;2023-09-30T10:52:06;99904.31;;;28.14;36.72
16331;BME280;8275;48.206;16.340;2023-09-30T10:54:35;99904.44;;;28.18;36.93
16331;BME280;8275;48.206;16.340;2023-09-30T10:57:03;99899.06;;;28.40;37.02
16331;BME280;8275;48.206;16.340;2023-09-30T10:59:32;99906.50;;;28.76;36.90
16331;BME280;8275;48.206;16.340;2023-09-30T11:02:02;99903.09;;;29.14;35.94
16331;BME280;8275;48.206;16.340;2023-09-30T11:04:45;99893.06;;;29.48;35.70
16331;BME280;8275;48.206;16.340;2023-09-30T11:07:22;99892.38;;;29.70;34.88
16331;BME280;8275;48.206;16.340;2023-09-30T11:09:54;99884.06;;;29.77;34.58
16331;BME280;8275;48.206;16.340;2023-09-30T11:12:23;99878.81;;;29.75;34.51
16331;BME280;8275;48.206;16.340;2023-09-30T11:15:02;99881.44;;;29.68;34.26
16331;BME280;8275;48.206;16.340;2023-09-30T11:17:31;99877.28;;;29.62;34.32
16331;BME280;8275;48.206;16.340;2023-09-30T11:20:02;99873.56;;;29.58;34.31
16331;BME280;8275;48.206;16.340;2023-09-30T11:22:33;99871.91;;;29.57;34.33
16331;BME280;8275;48.206;16.340;2023-09-30T11:25:04;99867.81;;;29.55;34.24
16331;BME280;8275;48.206;16.340;2023-09-30T11:27:32;99875.84;;;29.53;34.27
16331;BME280;8275;48.206;16.340;2023-09-30T11:30:03;99874.28;;;29.55;34.29
16331;BME280;8275;48.206;16.340;2023-09-30T11:32:32;99869.91;;;29.58;34.41
16331;BME280;8275;48.206;16.340;2023-09-30T11:35:03;99873.06;;;29.56;34.11
16331;BME280;8275;48.206;16.340;2023-09-30T11:37:32;99876.28;;;29.55;34.05
16331;BME280;8275;48.206;16.340;2023-09-30T11:40:11;99888.41;;;29.55;34.32
16331;BME280;8275;48.206;16.340;2023-09-30T11:42:40;99869.69;;;29.66;34.24
16331;BME280;8275;48.206;16.340;2023-09-30T11:45:19;99879.88;;;29.71;34.16
16331;BME280;8275;48.206;16.340;2023-09-30T11:47:50;99873.50;;;29.74;34.21
16331;BME280;8275;48.206;16.340;2023-09-30T11:50:20;99881.72;;;29.63;34.01
16331;BME280;8275;48.206;16.340;2023-09-30T11:52:51;99871.19;;;29.45;34.00
16331;BME280;8275;48.206;16.340;2023-09-30T11:55:20;99869.59;;;29.28;34.27
16331;BME280;8275;48.206;16.340;2023-09-30T11:57:48;99881.69;;;29.13;34.49
16331;BME280;8275;48.206;16.340;2023-09-30T12:00:22;99879.25;;;28.96;34.76
16331;BME280;8275;48.206;16.340;2023-09-30T12:02:51;99881.25;;;28.80;34.81
16331;BME280;8275;48.206;16.340;2023-09-30T12:05:22;99869.66;;;28.69;35.15
16331;BME280;8275;48.206;16.340;2023-09-30T12:07:51;99885.22;;;28.63;35.24
16331;BME280;8275;48.206;16.340;2023-09-30T12:10:19;99874.13;;;28.70;35.85
16331;BME280;8275;48.206;16.340;2023-09-30T12:12:48;99879.31;;;28.84;35.54
16331;BME280;8275;48.206;16.340;2023-09-30T12:15:17;99880.16;;;29.00;35.43
16331;BME280;8275;48.206;16.340;2023-09-30T12:17:47;99876.69;;;29.22;35.22
16331;BME280;8275;48.206;16.340;2023-09-30T12:20:16;99886.78;;;29.39;34.81
16331;BME280;8275;48.206;16.340;2023-09-30T12:22:46;99873.00;;;29.53;34.70
16331;BME280;8275;48.206;16.340;2023-09-30T12:25:15;99877.72;;;29.64;34.31
16331;BME280;8275;48.206;16.340;2023-09-30T12:27:48;99874.97;;;29.68;34.10
16331;BME280;8275;48.206;16.340;2023-09-30T12:30:18;99880.44;;;29.61;33.71
16331;BME280;8275;48.206;16.340;2023-09-30T12:32:47;99875.38;;;29.51;33.98
16331;BME280;8275;48.206;16.340;2023-09-30T12:35:15;99875.28;;;29.47;33.93
16331;BME280;8275;48.206;16.340;2023-09-30T12:37:45;99873.50;;;29.39;33.66
16331;BME280;8275;48.206;16.340;2023-09-30T12:40:14;99871.97;;;29.26;33.91
16331;BME280;8275;48.206;16.340;2023-09-30T12:42:44;99868.84;;;29.15;33.76
16331;BME280;8275;48.206;16.340;2023-09-30T12:45:14;99874.69;;;29.07;33.49
16331;BME280;8275;48.206;16.340;2023-09-30T12:47:44;99872.59;;;29.04;34.10
16331;BME280;8275;48.206;16.340;2023-09-30T12:50:14;99878.69;;;29.06;33.91
16331;BME280;8275;48.206;16.340;2023-09-30T12:52:43;99873.84;;;29.06;33.42
16331;BME280;8275;48.206;16.340;2023-09-30T12:55:13;99871.94;;;29.10;33.28
16331;BME280;8275;48.206;16.340;2023-09-30T12:57:41;99860.69;;;29.26;33.34
16331;BME280;8275;48.206;16.340;2023-09-30T13:00:11;99866.09;;;29.50;33.36
16331;BME280;8275;48.206;16.340;2023-09-30T13:02:42;99863.31;;;29.69;32.90
16331;BME280;8275;48.206;16.340;2023-09-30T13:05:11;99861.19;;;29.82;32.77
16331;BME280;8275;48.206;16.340;2023-09-30T13:07:39;99861.88;;;29.95;32.44
16331;BME280;8275;48.206;16.340;2023-09-30T13:10:09;99869.47;;;30.10;32.53
16331;BME280;8275;48.206;16.340;2023-09-30T13:12:39;99862.00;;;30.21;32.12
16331;BME280;8275;48.206;16.340;2023-09-30T13:15:09;99860.97;;;30.29;32.21
16331;BME280;8275;48.206;16.340;2023-09-30T13:17:37;99862.41;;;30.38;31.98